Conway, South Carolina
Current Conditions -  °F | °C
As of 4:35 AM on Thursday 27 Nov 2014 (Local Time) from KHYW Reporting Station
Overcast Overcast  
Wind Chill:   Ceiling: 11000
Heat Index:   Visibility: 7mi
Dew Point:   Wind: 0mph
Humidity: 100%   Direction: NA
Pressure: 30.07"   Gusts: NA
Location:  33.83°N, 79.05°W
Report Text: KHYW 270935Z AUTO 00000KT 7SM SCT090 OVC110 03/03 A3007 RMK AO2
Loading
Personal Weather Stations






























Interactive Weather Map New forecast layout! Learn more

10-Day Weather Forecast

Advertisements
Track Severe Weather on mobile